sensor_id;sensor_type;location;lat;lon;timestamp;temperature;humidity
11188;DHT22;5650;52.700;7.306;2022-08-21T00:02:21;17.80;99.90
11188;DHT22;5650;52.700;7.306;2022-08-21T00:04:55;17.80;99.90
11188;DHT22;5650;52.700;7.306;2022-08-21T00:07:22;17.70;99.90
11188;DHT22;5650;52.700;7.306;2022-08-21T00:09:55;17.70;99.90
11188;DHT22;5650;52.700;7.306;2022-08-21T00:12:23;17.70;99.90
11188;DHT22;5650;52.700;7.306;2022-08-21T00:14:53;17.70;99.90
11188;DHT22;5650;52.700;7.306;2022-08-21T00:17:21;17.60;99.90
11188;DHT22;5650;52.700;7.306;2022-08-21T00:19:51;17.60;99.90
11188;DHT22;5650;52.700;7.306;2022-08-21T00:22:18;17.50;99.90
11188;DHT22;5650;52.700;7.306;2022-08-21T00:24:45;17.50;99.90
11188;DHT22;5650;52.700;7.306;2022-08-21T00:27:16;17.40;99.90
11188;DHT22;5650;52.700;7.306;2022-08-21T00:29:44;17.40;99.90
11188;DHT22;5650;52.700;7.306;2022-08-21T00:32:11;17.40;99.90
11188;DHT22;5650;52.700;7.306;2022-08-21T00:34:38;17.40;99.90
11188;DHT22;5650;52.700;7.306;2022-08-21T00:37:05;17.30;99.90
11188;DHT22;5650;52.700;7.306;2022-08-21T00:39:37;17.30;99.90
11188;DHT22;5650;52.700;7.306;2022-08-21T00:42:07;17.30;99.90
11188;DHT22;5650;52.700;7.306;2022-08-21T00:44:37;17.20;99.90
11188;DHT22;5650;52.700;7.306;2022-08-21T00:47:08;17.20;99.90
11188;DHT22;5650;52.700;7.306;2022-08-21T00:49:36;17.10;99.90
11188;DHT22;5650;52.700;7.306;2022-08-21T00:52:09;17.10;99.90
11188;DHT22;5650;52.700;7.306;2022-08-21T00:54:41;17.10;99.90
11188;DHT22;5650;52.700;7.306;2022-08-21T00:57:15;17.10;99.90
11188;DHT22;5650;52.700;7.306;2022-08-21T00:59:46;17.00;99.90
11188;DHT22;5650;52.700;7.306;2022-08-21T01:02:16;17.00;99.90
11188;DHT22;5650;52.700;7.306;2022-08-21T01:04:44;16.90;99.90
11188;DHT22;5650;52.700;7.306;2022-08-21T01:07:18;16.90;99.90
11188;DHT22;5650;52.700;7.306;2022-08-21T01:09:46;16.90;99.90
11188;DHT22;5650;52.700;7.306;2022-08-21T01:12:14;16.90;99.90
11188;DHT22;5650;52.700;7.306;2022-08-21T01:14:44;16.80;99.90
11188;DHT22;5650;52.700;7.306;2022-08-21T01:17:15;16.80;99.90
11188;DHT22;5650;52.700;7.306;2022-08-21T01:19:57;16.80;99.90
11188;DHT22;5650;52.700;7.306;2022-08-21T01:22:26;16.80;99.90
11188;DHT22;5650;52.700;7.306;2022-08-21T01:24:53;16.70;99.90
11188;DHT22;5650;52.700;7.306;2022-08-21T01:27:20;16.70;99.90
11188;DHT22;5650;52.700;7.306;2022-08-21T01:29:52;16.70;99.90
11188;DHT22;5650;52.700;7.306;2022-08-21T01:32:22;16.60;99.90
11188;DHT22;5650;52.700;7.306;2022-08-21T01:34:51;16.60;99.90
11188;DHT22;5650;52.700;7.306;2022-08-21T01:37:19;16.60;99.90
11188;DHT22;5650;52.700;7.306;2022-08-21T01:42:19;16.60;99.90
11188;DHT22;5650;52.700;7.306;2022-08-21T01:44:46;16.60;99.90
11188;DHT22;5650;52.700;7.306;2022-08-21T01:47:14;16.50;99.90
11188;DHT22;5650;52.700;7.306;2022-08-21T01:49:42;16.50;99.90
11188;DHT22;5650;52.700;7.306;2022-08-21T01:52:09;16.50;99.90
11188;DHT22;5650;52.700;7.306;2022-08-21T01:54:40;16.50;99.90
11188;DHT22;5650;52.700;7.306;2022-08-21T01:57:07;16.50;99.90
11188;DHT22;5650;52.700;7.306;2022-08-21T01:59:36;16.40;99.90
11188;DHT22;5650;52.700;7.306;2022-08-21T02:02:03;16.50;99.90
11188;DHT22;5650;52.700;7.306;2022-08-21T02:04:36;16.50;99.90
11188;DHT22;5650;52.700;7.306;2022-08-21T02:07:09;16.50;99.90
11188;DHT22;5650;52.700;7.306;2022-08-21T02:09:37;16.50;99.90
11188;DHT22;5650;52.700;7.306;2022-08-21T02:12:07;16.50;99.90
11188;DHT22;5650;52.700;7.306;2022-08-21T02:14:36;16.50;99.90
11188;DHT22;5650;52.700;7.306;2022-08-21T02:17:06;16.50;99.90
11188;DHT22;5650;52.700;7.306;2022-08-21T02:19:40;16.50;99.90
11188;DHT22;5650;52.700;7.306;2022-08-21T02:22:11;16.50;99.90
11188;DHT22;5650;52.700;7.306;2022-08-21T02:24:39;16.50;99.90
11188;DHT22;5650;52.700;7.306;2022-08-21T02:27:09;16.50;99.90
11188;DHT22;5650;52.700;7.306;2022-08-21T02:29:40;16.50;99.90
11188;DHT22;5650;52.700;7.306;2022-08-21T02:32:11;16.50;99.90
11188;DHT22;5650;52.700;7.306;2022-08-21T02:34:41;16.40;99.90
11188;DHT22;5650;52.700;7.306;2022-08-21T02:37:08;16.40;99.90
11188;DHT22;5650;52.700;7.306;2022-08-21T02:39:35;16.40;99.90
11188;DHT22;5650;52.700;7.306;2022-08-21T02:42:25;16.30;99.90
11188;DHT22;5650;52.700;7.306;2022-08-21T02:44:54;16.30;99.90
11188;DHT22;5650;52.700;7.306;2022-08-21T02:47:21;16.20;99.90
11188;DHT22;5650;52.700;7.306;2022-08-21T02:49:48;16.20;99.90
11188;DHT22;5650;52.700;7.306;2022-08-21T02:52:15;16.10;99.90
11188;DHT22;5650;52.700;7.306;2022-08-21T02:54:54;16.10;99.90
11188;DHT22;5650;52.700;7.306;2022-08-21T02:57:21;16.10;99.90
11188;DHT22;5650;52.700;7.306;2022-08-21T02:59:49;16.10;99.90
11188;DHT22;5650;52.700;7.306;2022-08-21T03:02:25;16.00;99.90
11188;DHT22;5650;52.700;7.306;2022-08-21T03:04:52;16.00;99.90
11188;DHT22;5650;52.700;7.306;2022-08-21T03:07:19;15.90;99.90
11188;DHT22;5650;52.700;7.306;2022-08-21T03:09:50;15.90;99.90
11188;DHT22;5650;52.700;7.306;2022-08-21T03:12:17;15.90;99.90
11188;DHT22;5650;52.700;7.306;2022-08-21T03:14:44;15.80;99.90
11188;DHT22;5650;52.700;7.306;2022-08-21T03:17:11;15.80;99.90
11188;DHT22;5650;52.700;7.306;2022-08-21T03:19:40;15.80;99.90
11188;DHT22;5650;52.700;7.306;2022-08-21T03:22:07;15.70;99.90
11188;DHT22;5650;52.700;7.306;2022-08-21T03:24:36;15.70;99.90
11188;DHT22;5650;52.700;7.306;2022-08-21T03:27:04;15.70;99.90
11188;DHT22;5650;52.700;7.306;2022-08-21T03:29:33;15.70;99.90
11188;DHT22;5650;52.700;7.306;2022-08-21T03:32:07;15.60;99.90
11188;DHT22;5650;52.700;7.306;2022-08-21T03:34:36;15.60;99.90
11188;DHT22;5650;52.700;7.306;2022-08-21T03:37:10;15.60;99.90
11188;DHT22;5650;52.700;7.306;2022-08-21T03:39:37;15.60;99.90
11188;DHT22;5650;52.700;7.306;2022-08-21T03:42:07;15.50;99.90
11188;DHT22;5650;52.700;7.306;2022-08-21T03:44:37;15.50;99.90
11188;DHT22;5650;52.700;7.306;2022-08-21T03:47:05;15.50;99.90
11188;DHT22;5650;52.700;7.306;2022-08-21T03:49:32;15.40;99.90
11188;DHT22;5650;52.700;7.306;2022-08-21T03:52:00;15.40;99.90
11188;DHT22;5650;52.700;7.306;2022-08-21T03:54:31;15.40;99.90
11188;DHT22;5650;52.700;7.306;2022-08-21T03:57:02;15.30;99.90
11188;DHT22;5650;52.700;7.306;2022-08-21T03:59:30;15.30;99.90
11188;DHT22;5650;52.700;7.306;2022-08-21T04:02:01;15.30;99.90
11188;DHT22;5650;52.700;7.306;2022-08-21T04:04:30;15.20;99.90
11188;DHT22;5650;52.700;7.306;2022-08-21T04:06:58;15.20;99.90
11188;DHT22;5650;52.700;7.306;2022-08-21T04:09:26;15.20;99.90
11188;DHT22;5650;52.700;7.306;2022-08-21T04:11:55;15.20;99.90
11188;DHT22;5650;52.700;7.306;2022-08-21T04:14:22;15.20;99.90
11188;DHT22;5650;52.700;7.306;2022-08-21T04:16:52;15.20;99.90
11188;DHT22;5650;52.700;7.306;2022-08-21T04:19:19;15.20;99.90
11188;DHT22;5650;52.700;7.306;2022-08-21T04:21:51;15.20;99.90
11188;DHT22;5650;52.700;7.306;2022-08-21T04:24:21;15.20;99.90
11188;DHT22;5650;52.700;7.306;2022-08-21T04:26:48;15.20;99.90
11188;DHT22;5650;52.700;7.306;2022-08-21T04:29:17;15.20;99.90
11188;DHT22;5650;52.700;7.306;2022-08-21T04:31:48;15.20;99.90
11188;DHT22;5650;52.700;7.306;2022-08-21T04:34:15;15.10;99.90
11188;DHT22;5650;52.700;7.306;2022-08-21T04:36:48;15.10;99.90
11188;DHT22;5650;52.700;7.306;2022-08-21T04:39:15;15.10;99.90
11188;DHT22;5650;52.700;7.306;2022-08-21T04:41:48;15.00;99.90
11188;DHT22;5650;52.700;7.306;2022-08-21T04:44:17;15.00;99.90
11188;DHT22;5650;52.700;7.306;2022-08-21T04:46:44;15.00;99.90
11188;DHT22;5650;52.700;7.306;2022-08-21T04:49:14;15.00;99.90
11188;DHT22;5650;52.700;7.306;2022-08-21T04:51:44;15.00;99.90
11188;DHT22;5650;52.700;7.306;2022-08-21T04:54:16;15.00;99.90
11188;DHT22;5650;52.700;7.306;2022-08-21T04:56:47;15.00;99.90
11188;DHT22;5650;52.700;7.306;2022-08-21T04:59:20;15.00;99.90
11188;DHT22;5650;52.700;7.306;2022-08-21T05:01:49;15.00;99.90
11188;DHT22;5650;52.700;7.306;2022-08-21T05:04:24;15.10;99.90
11188;DHT22;5650;52.700;7.306;2022-08-21T05:06:53;15.10;99.90
11188;DHT22;5650;52.700;7.306;2022-08-21T05:09:21;15.10;99.90
11188;DHT22;5650;52.700;7.306;2022-08-21T05:11:54;15.20;99.90
11188;DHT22;5650;52.700;7.306;2022-08-21T05:14:23;15.20;99.90
11188;DHT22;5650;52.700;7.306;2022-08-21T05:16:52;15.20;99.90
11188;DHT22;5650;52.700;7.306;2022-08-21T05:19:20;15.30;99.90
11188;DHT22;5650;52.700;7.306;2022-08-21T05:21:47;15.40;99.90
11188;DHT22;5650;52.700;7.306;2022-08-21T05:24:14;15.50;99.90
11188;DHT22;5650;52.700;7.306;2022-08-21T05:26:42;15.60;99.90
11188;DHT22;5650;52.700;7.306;2022-08-21T05:29:12;15.70;99.90
11188;DHT22;5650;52.700;7.306;2022-08-21T05:31:44;15.80;99.90
11188;DHT22;5650;52.700;7.306;2022-08-21T05:34:17;15.90;99.90
11188;DHT22;5650;52.700;7.306;2022-08-21T05:36:44;16.00;99.90
11188;DHT22;5650;52.700;7.306;2022-08-21T05:39:17;16.20;99.90
11188;DHT22;5650;52.700;7.306;2022-08-21T05:41:45;16.90;99.90
11188;DHT22;5650;52.700;7.306;2022-08-21T05:44:13;17.80;99.90
11188;DHT22;5650;52.700;7.306;2022-08-21T05:46:40;18.70;99.90
11188;DHT22;5650;52.700;7.306;2022-08-21T05:49:15;19.50;99.90
11188;DHT22;5650;52.700;7.306;2022-08-21T05:51:45;20.30;99.90
11188;DHT22;5650;52.700;7.306;2022-08-21T05:54:15;21.00;99.90
11188;DHT22;5650;52.700;7.306;2022-08-21T05:56:42;21.40;99.90
11188;DHT22;5650;52.700;7.306;2022-08-21T05:59:15;21.80;99.90
11188;DHT22;5650;52.700;7.306;2022-08-21T06:01:46;22.20;99.90
11188;DHT22;5650;52.700;7.306;2022-08-21T06:04:14;22.50;99.90
11188;DHT22;5650;52.700;7.306;2022-08-21T06:06:45;23.00;99.90
11188;DHT22;5650;52.700;7.306;2022-08-21T06:09:13;23.40;99.90
11188;DHT22;5650;52.700;7.306;2022-08-21T06:11:40;23.80;99.90
11188;DHT22;5650;52.700;7.306;2022-08-21T06:14:07;24.20;99.90
11188;DHT22;5650;52.700;7.306;2022-08-21T06:16:34;24.50;99.90
11188;DHT22;5650;52.700;7.306;2022-08-21T06:19:01;24.70;99.70
11188;DHT22;5650;52.700;7.306;2022-08-21T06:21:30;24.90;98.80
11188;DHT22;5650;52.700;7.306;2022-08-21T06:23:57;25.10;98.30
11188;DHT22;5650;52.700;7.306;2022-08-21T06:26:28;25.30;97.90
11188;DHT22;5650;52.700;7.306;2022-08-21T06:28:55;25.50;97.30
11188;DHT22;5650;52.700;7.306;2022-08-21T06:31:24;25.60;96.50
11188;DHT22;5650;52.700;7.306;2022-08-21T06:33:52;25.80;96.00
11188;DHT22;5650;52.700;7.306;2022-08-21T06:36:23;25.80;95.60
11188;DHT22;5650;52.700;7.306;2022-08-21T06:38:59;26.10;95.20
11188;DHT22;5650;52.700;7.306;2022-08-21T06:41:29;26.20;94.20
11188;DHT22;5650;52.700;7.306;2022-08-21T06:43:59;26.20;94.00
11188;DHT22;5650;52.700;7.306;2022-08-21T06:46:28;26.30;94.00
11188;DHT22;5650;52.700;7.306;2022-08-21T06:48:56;26.30;92.90
11188;DHT22;5650;52.700;7.306;2022-08-21T06:51:24;26.30;93.00
11188;DHT22;5650;52.700;7.306;2022-08-21T06:54:02;26.30;93.00
11188;DHT22;5650;52.700;7.306;2022-08-21T06:56:29;26.40;93.00
11188;DHT22;5650;52.700;7.306;2022-08-21T06:58:58;26.40;92.80
11188;DHT22;5650;52.700;7.306;2022-08-21T07:01:29;26.40;92.90
11188;DHT22;5650;52.700;7.306;2022-08-21T07:03:59;26.60;92.80
11188;DHT22;5650;52.700;7.306;2022-08-21T07:06:32;26.70;92.50
11188;DHT22;5650;52.700;7.306;2022-08-21T07:08:59;26.60;92.40
11188;DHT22;5650;52.700;7.306;2022-08-21T07:11:28;26.70;92.50
11188;DHT22;5650;52.700;7.306;2022-08-21T07:13:56;26.70;92.60
11188;DHT22;5650;52.700;7.306;2022-08-21T07:16:24;26.80;92.30
11188;DHT22;5650;52.700;7.306;2022-08-21T07:18:51;27.00;92.50
11188;DHT22;5650;52.700;7.306;2022-08-21T07:21:18;27.00;92.20
11188;DHT22;5650;52.700;7.306;2022-08-21T07:23:47;27.00;92.20
11188;DHT22;5650;52.700;7.306;2022-08-21T07:26:16;27.10;92.40
11188;DHT22;5650;52.700;7.306;2022-08-21T07:28:46;27.20;92.10
11188;DHT22;5650;52.700;7.306;2022-08-21T07:31:15;27.20;92.00
11188;DHT22;5650;52.700;7.306;2022-08-21T07:33:43;27.10;92.00
11188;DHT22;5650;52.700;7.306;2022-08-21T07:36:11;27.20;92.30
11188;DHT22;5650;52.700;7.306;2022-08-21T07:38:38;27.30;92.50
11188;DHT22;5650;52.700;7.306;2022-08-21T07:41:12;27.40;92.00
11188;DHT22;5650;52.700;7.306;2022-08-21T07:43:40;27.40;92.20
11188;DHT22;5650;52.700;7.306;2022-08-21T07:46:09;27.40;92.20
11188;DHT22;5650;52.700;7.306;2022-08-21T07:48:36;27.30;92.30
11188;DHT22;5650;52.700;7.306;2022-08-21T07:51:10;27.20;92.40
11188;DHT22;5650;52.700;7.306;2022-08-21T07:53:38;27.10;92.50
11188;DHT22;5650;52.700;7.306;2022-08-21T07:56:07;27.00;93.00
11188;DHT22;5650;52.700;7.306;2022-08-21T07:58:36;27.00;93.40
11188;DHT22;5650;52.700;7.306;2022-08-21T08:01:05;27.00;92.80
11188;DHT22;5650;52.700;7.306;2022-08-21T08:03:34;26.90;93.20
11188;DHT22;5650;52.700;7.306;2022-08-21T08:06:01;27.00;93.40
11188;DHT22;5650;52.700;7.306;2022-08-21T08:08:30;27.00;93.10
11188;DHT22;5650;52.700;7.306;2022-08-21T08:10:58;26.80;93.10
11188;DHT22;5650;52.700;7.306;2022-08-21T08:13:26;26.60;93.20
11188;DHT22;5650;52.700;7.306;2022-08-21T08:15:53;26.60;93.30
11188;DHT22;5650;52.700;7.306;2022-08-21T08:18:20;26.50;92.80
11188;DHT22;5650;52.700;7.306;2022-08-21T08:20:48;26.50;93.10
11188;DHT22;5650;52.700;7.306;2022-08-21T08:23:15;26.50;93.30
11188;DHT22;5650;52.700;7.306;2022-08-21T08:25:43;26.40;92.70
11188;DHT22;5650;52.700;7.306;2022-08-21T08:28:10;26.30;92.70
11188;DHT22;5650;52.700;7.306;2022-08-21T08:30:37;26.20;92.60
11188;DHT22;5650;52.700;7.306;2022-08-21T08:33:04;26.00;93.00
11188;DHT22;5650;52.700;7.306;2022-08-21T08:35:31;26.00;93.30
11188;DHT22;5650;52.700;7.306;2022-08-21T08:38:01;25.90;93.50
11188;DHT22;5650;52.700;7.306;2022-08-21T08:40:37;26.00;93.80
11188;DHT22;5650;52.700;7.306;2022-08-21T08:43:10;26.20;93.20
11188;DHT22;5650;52.700;7.306;2022-08-21T08:45:39;26.40;93.00
11188;DHT22;5650;52.700;7.306;2022-08-21T08:48:10;26.70;92.50
11188;DHT22;5650;52.700;7.306;2022-08-21T08:50:41;26.80;91.70
11188;DHT22;5650;52.700;7.306;2022-08-21T08:53:17;27.00;91.50
11188;DHT22;5650;52.700;7.306;2022-08-21T08:55:45;27.10;91.50
11188;DHT22;5650;52.700;7.306;2022-08-21T08:58:23;27.40;91.10
11188;DHT22;5650;52.700;7.306;2022-08-21T09:00:52;27.60;90.50
11188;DHT22;5650;52.700;7.306;2022-08-21T09:03:21;27.80;90.10
11188;DHT22;5650;52.700;7.306;2022-08-21T09:05:55;27.60;90.60
11188;DHT22;5650;52.700;7.306;2022-08-21T09:08:40;27.40;90.60
11188;DHT22;5650;52.700;7.306;2022-08-21T09:11:11;27.00;90.60
11188;DHT22;5650;52.700;7.306;2022-08-21T09:13:50;26.60;90.90
11188;DHT22;5650;52.700;7.306;2022-08-21T09:16:34;26.30;91.00
11188;DHT22;5650;52.700;7.306;2022-08-21T09:19:11;26.10;91.30
11188;DHT22;5650;52.700;7.306;2022-08-21T09:21:46;25.90;91.60
11188;DHT22;5650;52.700;7.306;2022-08-21T09:24:27;25.90;91.70
11188;DHT22;5650;52.700;7.306;2022-08-21T09:27:02;25.90;91.50
11188;DHT22;5650;52.700;7.306;2022-08-21T09:29:34;25.80;91.40
11188;DHT22;5650;52.700;7.306;2022-08-21T09:32:03;25.80;91.20
11188;DHT22;5650;52.700;7.306;2022-08-21T09:34:38;25.90;91.50
11188;DHT22;5650;52.700;7.306;2022-08-21T09:37:18;25.90;91.20
11188;DHT22;5650;52.700;7.306;2022-08-21T09:39:46;25.80;91.20
11188;DHT22;5650;52.700;7.306;2022-08-21T09:42:22;25.80;91.40
11188;DHT22;5650;52.700;7.306;2022-08-21T09:45:10;25.70;91.70
11188;DHT22;5650;52.700;7.306;2022-08-21T09:47:41;25.80;91.50
11188;DHT22;5650;52.700;7.306;2022-08-21T09:50:15;25.60;91.20
11188;DHT22;5650;52.700;7.306;2022-08-21T09:52:45;25.40;91.50
11188;DHT22;5650;52.700;7.306;2022-08-21T09:55:21;25.30;91.90
11188;DHT22;5650;52.700;7.306;2022-08-21T09:58:07;25.20;92.20
11188;DHT22;5650;52.700;7.306;2022-08-21T10:00:35;25.20;91.90
11188;DHT22;5650;52.700;7.306;2022-08-21T10:03:11;25.30;91.70
11188;DHT22;5650;52.700;7.306;2022-08-21T10:05:55;25.40;91.60
11188;DHT22;5650;52.700;7.306;2022-08-21T10:08:28;25.50;91.40
11188;DHT22;5650;52.700;7.306;2022-08-21T10:11:15;25.50;90.90
11188;DHT22;5650;52.700;7.306;2022-08-21T10:13:50;25.50;90.90
11188;DHT22;5650;52.700;7.306;2022-08-21T10:16:30;25.50;91.10
11188;DHT22;5650;52.700;7.306;2022-08-21T10:19:15;25.30;91.20
11188;DHT22;5650;52.700;7.306;2022-08-21T10:21:58;25.30;91.30
11188;DHT22;5650;52.700;7.306;2022-08-21T10:24:32;25.20;91.00
11188;DHT22;5650;52.700;7.306;2022-08-21T10:27:10;25.10;91.20
11188;DHT22;5650;52.700;7.306;2022-08-21T10:29:51;25.00;91.20
11188;DHT22;5650;52.700;7.306;2022-08-21T10:32:34;25.00;91.50
11188;DHT22;5650;52.700;7.306;2022-08-21T10:35:12;25.00;91.70
11188;DHT22;5650;52.700;7.306;2022-08-21T10:37:55;25.20;91.10
11188;DHT22;5650;52.700;7.306;2022-08-21T10:40:29;25.30;90.90
11188;DHT22;5650;52.700;7.306;2022-08-21T10:43:07;25.40;91.10
11188;DHT22;5650;52.700;7.306;2022-08-21T10:45:52;25.50;91.20
11188;DHT22;5650;52.700;7.306;2022-08-21T10:48:36;25.80;91.00
11188;DHT22;5650;52.700;7.306;2022-08-21T10:51:10;25.90;90.50
11188;DHT22;5650;52.700;7.306;2022-08-21T10:53:57;26.00;90.00
11188;DHT22;5650;52.700;7.306;2022-08-21T10:56:29;26.00;89.60
11188;DHT22;5650;52.700;7.306;2022-08-21T10:59:14;25.80;88.80
11188;DHT22;5650;52.700;7.306;2022-08-21T11:01:58;25.60;89.40
11188;DHT22;5650;52.700;7.306;2022-08-21T11:04:31;25.60;89.70
11188;DHT22;5650;52.700;7.306;2022-08-21T11:07:02;25.60;89.60
11188;DHT22;5650;52.700;7.306;2022-08-21T11:09:31;25.60;89.00
11188;DHT22;5650;52.700;7.306;2022-08-21T11:12:02;25.50;89.20
11188;DHT22;5650;52.700;7.306;2022-08-21T11:14:47;25.50;88.00
11188;DHT22;5650;52.700;7.306;2022-08-21T11:17:22;25.40;89.60
11188;DHT22;5650;52.700;7.306;2022-08-21T11:19:54;25.30;90.50
11188;DHT22;5650;52.700;7.306;2022-08-21T11:22:33;25.40;90.60
11188;DHT22;5650;52.700;7.306;2022-08-21T11:25:17;25.40;89.80
11188;DHT22;5650;52.700;7.306;2022-08-21T11:27:50;25.30;90.10
11188;DHT22;5650;52.700;7.306;2022-08-21T11:30:21;25.20;90.30
11188;DHT22;5650;52.700;7.306;2022-08-21T11:33:07;25.20;91.00
11188;DHT22;5650;52.700;7.306;2022-08-21T11:35:53;25.20;90.60
11188;DHT22;5650;52.700;7.306;2022-08-21T11:38:35;25.40;90.40
11188;DHT22;5650;52.700;7.306;2022-08-21T11:41:16;25.50;89.40
11188;DHT22;5650;52.700;7.306;2022-08-21T11:43:55;25.60;89.10
11188;DHT22;5650;52.700;7.306;2022-08-21T11:46:31;25.70;88.20
11188;DHT22;5650;52.700;7.306;2022-08-21T11:52:13;25.90;86.50
11188;DHT22;5650;52.700;7.306;2022-08-21T11:54:46;25.90;85.80
11188;DHT22;5650;52.700;7.306;2022-08-21T11:57:17;25.80;84.80
11188;DHT22;5650;52.700;7.306;2022-08-21T11:59:51;25.80;84.70
11188;DHT22;5650;52.700;7.306;2022-08-21T12:02:24;25.80;84.00
11188;DHT22;5650;52.700;7.306;2022-08-21T12:04:57;25.80;85.00
11188;DHT22;5650;52.700;7.306;2022-08-21T12:07:33;25.70;85.00
11188;DHT22;5650;52.700;7.306;2022-08-21T12:10:03;25.70;85.20
11188;DHT22;5650;52.700;7.306;2022-08-21T12:12:33;25.70;85.30
11188;DHT22;5650;52.700;7.306;2022-08-21T12:15:24;25.70;84.10
11188;DHT22;5650;52.700;7.306;2022-08-21T12:17:59;25.70;84.20
11188;DHT22;5650;52.700;7.306;2022-08-21T12:20:36;25.60;84.30
11188;DHT22;5650;52.700;7.306;2022-08-21T12:23:34;25.50;84.60
11188;DHT22;5650;52.700;7.306;2022-08-21T12:26:30;25.50;84.80
11188;DHT22;5650;52.700;7.306;2022-08-21T12:29:05;25.60;85.50
11188;DHT22;5650;52.700;7.306;2022-08-21T12:31:52;25.70;85.10
11188;DHT22;5650;52.700;7.306;2022-08-21T12:34:22;25.60;84.40
11188;DHT22;5650;52.700;7.306;2022-08-21T12:36:58;25.60;84.60
11188;DHT22;5650;52.700;7.306;2022-08-21T12:39:29;25.60;85.90
11188;DHT22;5650;52.700;7.306;2022-08-21T12:42:00;25.60;86.30
11188;DHT22;5650;52.700;7.306;2022-08-21T12:44:46;25.70;86.30
11188;DHT22;5650;52.700;7.306;2022-08-21T12:47:18;25.70;86.30
11188;DHT22;5650;52.700;7.306;2022-08-21T12:49:59;25.70;86.60
11188;DHT22;5650;52.700;7.306;2022-08-21T12:52:30;25.70;85.60
11188;DHT22;5650;52.700;7.306;2022-08-21T12:54:59;25.80;85.80
11188;DHT22;5650;52.700;7.306;2022-08-21T12:57:29;25.80;86.80
11188;DHT22;5650;52.700;7.306;2022-08-21T12:59:58;25.80;86.50
11188;DHT22;5650;52.700;7.306;2022-08-21T13:02:34;25.80;86.20
11188;DHT22;5650;52.700;7.306;2022-08-21T13:05:16;25.80;85.40
11188;DHT22;5650;52.700;7.306;2022-08-21T13:07:47;25.80;85.70
11188;DHT22;5650;52.700;7.306;2022-08-21T13:10:19;25.70;86.20
11188;DHT22;5650;52.700;7.306;2022-08-21T13:12:47;25.80;86.50
11188;DHT22;5650;52.700;7.306;2022-08-21T13:15:21;25.80;86.40
11188;DHT22;5650;52.700;7.306;2022-08-21T13:17:55;25.80;86.00
11188;DHT22;5650;52.700;7.306;2022-08-21T13:20:33;25.90;86.10
11188;DHT22;5650;52.700;7.306;2022-08-21T13:23:19;25.90;86.10
11188;DHT22;5650;52.700;7.306;2022-08-21T13:25:47;26.00;86.70
11188;DHT22;5650;52.700;7.306;2022-08-21T13:28:21;26.00;85.90
11188;DHT22;5650;52.700;7.306;2022-08-21T13:30:51;25.90;85.90
11188;DHT22;5650;52.700;7.306;2022-08-21T13:33:24;25.90;86.30
11188;DHT22;5650;52.700;7.306;2022-08-21T13:36:03;25.80;86.80
11188;DHT22;5650;52.700;7.306;2022-08-21T13:38:35;25.80;86.80
11188;DHT22;5650;52.700;7.306;2022-08-21T13:41:08;25.90;87.20
11188;DHT22;5650;52.700;7.306;2022-08-21T13:43:38;26.00;87.60
11188;DHT22;5650;52.700;7.306;2022-08-21T13:46:12;26.10;86.50
11188;DHT22;5650;52.700;7.306;2022-08-21T13:48:41;26.10;85.50
11188;DHT22;5650;52.700;7.306;2022-08-21T13:51:10;26.10;85.40
11188;DHT22;5650;52.700;7.306;2022-08-21T13:53:46;26.10;85.10
11188;DHT22;5650;52.700;7.306;2022-08-21T13:56:28;26.10;85.60
11188;DHT22;5650;52.700;7.306;2022-08-21T13:59:00;26.00;86.00
11188;DHT22;5650;52.700;7.306;2022-08-21T14:01:31;26.00;86.10
11188;DHT22;5650;52.700;7.306;2022-08-21T14:04:05;25.90;85.60
11188;DHT22;5650;52.700;7.306;2022-08-21T14:06:36;25.90;86.30
11188;DHT22;5650;52.700;7.306;2022-08-21T14:09:12;25.80;87.70
11188;DHT22;5650;52.700;7.306;2022-08-21T14:11:41;25.70;87.10
11188;DHT22;5650;52.700;7.306;2022-08-21T14:14:19;25.70;87.50
11188;DHT22;5650;52.700;7.306;2022-08-21T14:16:56;25.70;87.90
11188;DHT22;5650;52.700;7.306;2022-08-21T14:19:35;25.80;87.40
11188;DHT22;5650;52.700;7.306;2022-08-21T14:22:22;25.90;87.10
11188;DHT22;5650;52.700;7.306;2022-08-21T14:24:50;26.00;86.90
11188;DHT22;5650;52.700;7.306;2022-08-21T14:27:25;26.10;85.60
11188;DHT22;5650;52.700;7.306;2022-08-21T14:30:11;26.20;84.80
11188;DHT22;5650;52.700;7.306;2022-08-21T14:32:41;26.20;84.70
11188;DHT22;5650;52.700;7.306;2022-08-21T14:35:08;26.20;85.00
11188;DHT22;5650;52.700;7.306;2022-08-21T14:37:40;26.20;85.20
11188;DHT22;5650;52.700;7.306;2022-08-21T14:40:11;26.20;85.00
11188;DHT22;5650;52.700;7.306;2022-08-21T14:42:39;26.10;85.00
11188;DHT22;5650;52.700;7.306;2022-08-21T14:45:19;26.20;85.60
11188;DHT22;5650;52.700;7.306;2022-08-21T14:47:50;26.20;85.70
11188;DHT22;5650;52.700;7.306;2022-08-21T14:50:20;26.20;86.00
11188;DHT22;5650;52.700;7.306;2022-08-21T14:52:49;26.30;85.90
11188;DHT22;5650;52.700;7.306;2022-08-21T14:55:18;26.30;85.90
11188;DHT22;5650;52.700;7.306;2022-08-21T14:57:48;26.30;86.10
11188;DHT22;5650;52.700;7.306;2022-08-21T15:00:24;26.30;86.10
11188;DHT22;5650;52.700;7.306;2022-08-21T15:02:52;26.40;86.10
11188;DHT22;5650;52.700;7.306;2022-08-21T15:05:25;26.40;86.10
11188;DHT22;5650;52.700;7.306;2022-08-21T15:07:54;26.40;86.70
11188;DHT22;5650;52.700;7.306;2022-08-21T15:10:21;26.50;86.70
11188;DHT22;5650;52.700;7.306;2022-08-21T15:12:50;26.40;86.10
11188;DHT22;5650;52.700;7.306;2022-08-21T15:15:26;26.50;86.00
11188;DHT22;5650;52.700;7.306;2022-08-21T15:17:57;26.40;86.10
11188;DHT22;5650;52.700;7.306;2022-08-21T15:20:24;26.40;86.00
11188;DHT22;5650;52.700;7.306;2022-08-21T15:22:53;26.40;86.10
11188;DHT22;5650;52.700;7.306;2022-08-21T15:25:20;26.30;86.50
11188;DHT22;5650;52.700;7.306;2022-08-21T15:27:49;26.20;86.90
11188;DHT22;5650;52.700;7.306;2022-08-21T15:30:17;26.20;87.60
11188;DHT22;5650;52.700;7.306;2022-08-21T15:32:51;26.10;87.40
11188;DHT22;5650;52.700;7.306;2022-08-21T15:35:18;26.00;87.20
11188;DHT22;5650;52.700;7.306;2022-08-21T15:37:45;25.90;87.70
11188;DHT22;5650;52.700;7.306;2022-08-21T15:40:14;25.90;88.30
11188;DHT22;5650;52.700;7.306;2022-08-21T15:42:45;25.90;88.90
11188;DHT22;5650;52.700;7.306;2022-08-21T15:45:14;25.90;89.80
11188;DHT22;5650;52.700;7.306;2022-08-21T15:47:43;25.80;89.90
11188;DHT22;5650;52.700;7.306;2022-08-21T15:50:14;25.70;90.00
11188;DHT22;5650;52.700;7.306;2022-08-21T15:52:42;25.70;90.90
11188;DHT22;5650;52.700;7.306;2022-08-21T15:55:11;25.50;91.60
11188;DHT22;5650;52.700;7.306;2022-08-21T15:57:47;25.40;92.20
11188;DHT22;5650;52.700;7.306;2022-08-21T16:00:16;25.30;92.90
11188;DHT22;5650;52.700;7.306;2022-08-21T16:02:46;25.20;93.30
11188;DHT22;5650;52.700;7.306;2022-08-21T16:05:15;25.00;93.80
11188;DHT22;5650;52.700;7.306;2022-08-21T16:07:44;24.90;94.40
11188;DHT22;5650;52.700;7.306;2022-08-21T16:10:17;24.80;94.40
11188;DHT22;5650;52.700;7.306;2022-08-21T16:12:49;24.80;94.50
11188;DHT22;5650;52.700;7.306;2022-08-21T16:15:24;24.80;95.10
11188;DHT22;5650;52.700;7.306;2022-08-21T16:17:56;24.80;94.90
11188;DHT22;5650;52.700;7.306;2022-08-21T16:20:25;24.80;95.00